createdAt,value
2022-08-03T00:00:42.519Z,100437.61
2022-08-03T00:03:11.093Z,100433.97
2022-08-03T00:05:40.391Z,100431.42
2022-08-03T00:08:28.951Z,100430.30
2022-08-03T00:10:57.595Z,100429.20
2022-08-03T00:13:27.162Z,100430.23
2022-08-03T00:15:55.977Z,100429.27
2022-08-03T00:18:25.014Z,100427.61
2022-08-03T00:20:53.755Z,100420.53
2022-08-03T00:23:22.421Z,100423.63
2022-08-03T00:25:51.102Z,100421.95
2022-08-03T00:28:19.795Z,100422.48
2022-08-03T00:30:49.235Z,100425.01
2022-08-03T00:33:19.148Z,100429.69
2022-08-03T00:35:52.954Z,100431.44
2022-08-03T00:38:21.463Z,100430.98
2022-08-03T00:40:50.135Z,100432.36
2022-08-03T00:43:19.257Z,100434.84
2022-08-03T00:45:48.375Z,100435.33
2022-08-03T00:48:32.929Z,100438.88
2022-08-03T00:51:02.851Z,100439.77
2022-08-03T00:53:32.475Z,100440.64
2022-08-03T00:56:01.088Z,100441.73
2022-08-03T00:58:29.801Z,100437.98
2022-08-03T01:00:59.247Z,100435.11
2022-08-03T01:03:28.626Z,100435.73
2022-08-03T01:06:21.108Z,100434.87
2022-08-03T01:09:03.568Z,100431.38
2022-08-03T01:12:12.957Z,100432.25
2022-08-03T01:15:34.413Z,100430.13
2022-08-03T01:18:26.311Z,100436.41
2022-08-03T01:21:01.193Z,100436.58
2022-08-03T01:23:59.954Z,100437.05
2022-08-03T01:27:31.620Z,100436.34
2022-08-03T01:30:12.291Z,100439.05
2022-08-03T01:33:06.851Z,100441.27
2022-08-03T01:36:22.769Z,100438.89
2022-08-03T01:39:00.855Z,100434.59
2022-08-03T01:41:37.923Z,100434.27
2022-08-03T01:44:29.918Z,100437.46
2022-08-03T01:47:01.630Z,100440.08
2022-08-03T01:49:39.856Z,100438.41
2022-08-03T01:52:10.621Z,100436.42
2022-08-03T01:54:45.838Z,100436.12
2022-08-03T01:57:16.814Z,100438.02
2022-08-03T01:59:51.249Z,100441.37
2022-08-03T02:02:33.494Z,100440.80
2022-08-03T02:05:10.611Z,100442.24
2022-08-03T02:07:45.703Z,100445.02
2022-08-03T02:10:34.611Z,100444.85
2022-08-03T02:13:08.665Z,100446.67
2022-08-03T02:15:39.553Z,100442.21
2022-08-03T02:18:11.020Z,100440.86
2022-08-03T02:20:42.289Z,100432.91
2022-08-03T02:23:11.276Z,100432.90
2022-08-03T02:25:47.229Z,100432.75
2022-08-03T02:28:22.702Z,100434.16
2022-08-03T02:30:56.379Z,100432.12
2022-08-03T02:33:42.082Z,100432.37
2022-08-03T02:36:13.707Z,100432.85
2022-08-03T02:38:46.744Z,100436.19
2022-08-03T02:41:21.139Z,100436.82
2022-08-03T02:44:06.145Z,100437.61
2022-08-03T02:46:40.199Z,100441.05
2022-08-03T02:49:40.864Z,100444.71
2022-08-03T02:52:00.823Z,100442.39
2022-08-03T02:54:30.999Z,100439.70
2022-08-03T02:57:01.826Z,100441.69
2022-08-03T02:59:32.539Z,100438.09
2022-08-03T03:02:03.264Z,100442.15
2022-08-03T03:04:33.256Z,100445.81
2022-08-03T03:07:04.338Z,100445.25
2022-08-03T03:09:41.803Z,100444.46
2022-08-03T03:12:14.593Z,100446.21
2022-08-03T03:14:43.722Z,100445.48
2022-08-03T03:17:13.102Z,100452.17
2022-08-03T03:19:45.614Z,100454.85
2022-08-03T03:22:15.795Z,100451.49
2022-08-03T03:24:50.883Z,100448.95
2022-08-03T03:27:19.716Z,100453.23
2022-08-03T03:29:50.199Z,100456.25
2022-08-03T03:32:19.174Z,100456.89
2022-08-03T03:34:50.823Z,100460.46
2022-08-03T03:37:20.010Z,100459.16
2022-08-03T03:39:48.589Z,100461.62
2022-08-03T03:42:17.827Z,100467.42
2022-08-03T03:44:49.560Z,100465.57
2022-08-03T03:47:18.775Z,100467.63
2022-08-03T03:50:04.508Z,100467.19
2022-08-03T03:52:34.218Z,100470.98
2022-08-03T03:55:07.065Z,100473.35
2022-08-03T03:57:35.693Z,100472.92
2022-08-03T04:00:06.119Z,100467.04
2022-08-03T04:02:34.884Z,100473.14
2022-08-03T04:05:28.554Z,100476.70
2022-08-03T04:08:24.129Z,100477.37
2022-08-03T04:11:21.130Z,100479.09
2022-08-03T04:14:13.734Z,100485.19
2022-08-03T04:16:46.841Z,100486.15
2022-08-03T04:19:23.391Z,100489.14
2022-08-03T04:21:58.235Z,100486.55
2022-08-03T04:24:35.933Z,100486.02
2022-08-03T04:27:11.344Z,100491.27
2022-08-03T04:29:48.183Z,100491.64
2022-08-03T04:32:18.545Z,100488.95
2022-08-03T04:34:48.056Z,100485.27
2022-08-03T04:37:40.574Z,100490.00
2022-08-03T04:40:22.779Z,100489.48
2022-08-03T04:42:56.189Z,100492.06
2022-08-03T04:45:25.793Z,100493.94
2022-08-03T04:47:56.330Z,100488.65
2022-08-03T04:50:25.746Z,100494.29
2022-08-03T04:53:27.708Z,100494.34
2022-08-03T04:55:56.187Z,100487.73
2022-08-03T04:58:29.891Z,100491.27
2022-08-03T05:00:58.206Z,100496.28
2022-08-03T05:03:26.751Z,100496.94
2022-08-03T05:06:01.664Z,100499.04
2022-08-03T05:08:46.514Z,100506.83
2022-08-03T05:11:17.221Z,100500.05
2022-08-03T05:13:46.534Z,100504.38
2022-08-03T05:16:15.893Z,100498.64
2022-08-03T05:18:45.228Z,100502.17
2022-08-03T05:21:14.634Z,100506.52
2022-08-03T05:23:44.506Z,100507.84
2022-08-03T05:26:13.193Z,100507.05
2022-08-03T05:28:50.010Z,100507.12
2022-08-03T05:31:20.022Z,100505.32
2022-08-03T05:33:49.602Z,100502.75
2022-08-03T05:36:17.976Z,100508.05
2022-08-03T05:38:46.354Z,100501.20
2022-08-03T05:41:21.558Z,100503.88
2022-08-03T05:43:54.408Z,100507.88
2022-08-03T05:46:23.379Z,100508.89
2022-08-03T05:48:52.461Z,100509.95
2022-08-03T05:51:21.256Z,100507.83
2022-08-03T05:53:50.046Z,100510.50
2022-08-03T05:56:22.729Z,100513.31
2022-08-03T05:58:52.557Z,100510.02
2022-08-03T06:01:22.191Z,100514.05
2022-08-03T06:03:52.391Z,100516.04
2022-08-03T06:06:22.218Z,100518.53
2022-08-03T06:08:50.596Z,100516.79
2022-08-03T06:11:19.041Z,100517.63
2022-08-03T06:13:47.627Z,100524.33
2022-08-03T06:16:16.110Z,100522.72
2022-08-03T06:18:44.422Z,100524.59
2022-08-03T06:21:15.180Z,100526.09
2022-08-03T06:23:54.810Z,100525.03
2022-08-03T06:26:28.690Z,100524.21
2022-08-03T06:28:57.360Z,100520.09
2022-08-03T06:31:32.731Z,100519.91
2022-08-03T06:34:30.808Z,100526.85
2022-08-03T06:37:01.365Z,100524.90
2022-08-03T06:39:30.693Z,100523.80
2022-08-03T06:41:59.193Z,100523.05
2022-08-03T06:44:27.489Z,100520.50
2022-08-03T06:46:55.943Z,100517.39
2022-08-03T06:49:25.367Z,100517.61
2022-08-03T06:52:04.030Z,100523.27
2022-08-03T06:54:36.455Z,100515.59
2022-08-03T06:57:05.396Z,100522.17
2022-08-03T07:00:09.249Z,100521.86
2022-08-03T07:02:22.611Z,100524.91
2022-08-03T07:04:51.161Z,100526.53
2022-08-03T07:07:20.808Z,100524.14
2022-08-03T07:09:53.202Z,100525.02
2022-08-03T07:12:30.661Z,100527.22
2022-08-03T07:15:02.153Z,100528.46
2022-08-03T07:17:34.826Z,100522.20
2022-08-03T07:20:08.573Z,100523.48
2022-08-03T07:22:36.886Z,100526.58
2022-08-03T07:25:06.335Z,100521.49
2022-08-03T07:27:34.840Z,100521.12
2022-08-03T07:30:08.338Z,100520.73
2022-08-03T07:32:36.921Z,100518.34
2022-08-03T07:35:24.233Z,100519.48
2022-08-03T07:37:55.228Z,100522.69
2022-08-03T07:40:23.871Z,100519.53
2022-08-03T07:42:58.602Z,100523.30
2022-08-03T07:45:27.391Z,100524.13
2022-08-03T07:47:55.898Z,100527.48
2022-08-03T07:50:24.455Z,100530.67
2022-08-03T07:52:54.183Z,100533.14
2022-08-03T07:55:25.284Z,100528.98
2022-08-03T07:58:16.515Z,100534.61
2022-08-03T08:00:48.021Z,100532.45
2022-08-03T08:03:16.870Z,100531.55
2022-08-03T08:05:45.967Z,100527.55
2022-08-03T08:08:14.754Z,100528.73
2022-08-03T08:10:43.284Z,100533.14
2022-08-03T08:13:27.283Z,100533.93
2022-08-03T08:15:56.276Z,100530.02
2022-08-03T08:18:24.961Z,100530.13
2022-08-03T08:20:53.546Z,100529.23
2022-08-03T08:23:42.181Z,100526.11
2022-08-03T08:26:13.859Z,100533.61
2022-08-03T08:28:42.502Z,100534.15
2022-08-03T08:31:11.130Z,100529.19
2022-08-03T08:34:03.211Z,100527.14
2022-08-03T08:36:28.366Z,100539.54
2022-08-03T08:38:57.160Z,100534.78
2022-08-03T08:41:32.078Z,100537.17
2022-08-03T08:44:04.874Z,100529.70
2022-08-03T08:46:34.071Z,100536.13
2022-08-03T08:49:05.235Z,100527.70
2022-08-03T08:51:52.682Z,100528.44
2022-08-03T08:54:27.995Z,100536.23
2022-08-03T08:57:02.107Z,100536.48
2022-08-03T08:59:48.462Z,100534.10
2022-08-03T09:02:19.115Z,100533.23
2022-08-03T09:04:49.249Z,100532.65
2022-08-03T09:07:29.105Z,100529.84
2022-08-03T09:10:08.470Z,100529.41
2022-08-03T09:12:51.518Z,100528.13
2022-08-03T09:15:31.611Z,100539.54
2022-08-03T09:18:03.518Z,100535.56
2022-08-03T09:20:35.308Z,100536.92
2022-08-03T09:23:51.392Z,100530.13
2022-08-03T09:26:01.906Z,100531.77
2022-08-03T09:29:00.868Z,100536.52
2022-08-03T09:31:43.742Z,100536.48
2022-08-03T09:34:18.403Z,100538.73
2022-08-03T09:36:49.603Z,100529.34
2022-08-03T09:39:40.948Z,100532.10
2022-08-03T09:42:18.665Z,100528.02
2022-08-03T09:44:52.655Z,100528.80
2022-08-03T09:47:34.708Z,100520.47
2022-08-03T09:50:08.225Z,100523.66
2022-08-03T09:52:49.433Z,100517.16
2022-08-03T09:56:33.293Z,100525.48
2022-08-03T09:58:14.515Z,100517.94
2022-08-03T10:01:05.301Z,100516.85
2022-08-03T10:03:47.002Z,100516.95
2022-08-03T10:06:29.165Z,100517.77
2022-08-03T10:09:12.003Z,100516.97
2022-08-03T10:11:43.381Z,100520.43
2022-08-03T10:14:19.574Z,100531.36
2022-08-03T10:16:49.634Z,100531.73
2022-08-03T10:19:18.402Z,100522.03
2022-08-03T10:22:02.987Z,100517.31
2022-08-03T10:24:36.469Z,100520.84
2022-08-03T10:27:07.684Z,100521.02
2022-08-03T10:29:45.764Z,100521.06
2022-08-03T10:32:42.513Z,100511.10
2022-08-03T10:35:21.631Z,100509.44
2022-08-03T10:37:58.677Z,100513.62
2022-08-03T10:43:25.925Z,100506.88
2022-08-03T10:45:54.462Z,100499.58
2022-08-03T10:48:23.505Z,100514.81
2022-08-03T10:50:52.757Z,100503.95
2022-08-03T10:53:54.346Z,100495.03
2022-08-03T10:57:14.185Z,100495.75
2022-08-03T10:59:45.739Z,100494.23
2022-08-03T11:02:15.736Z,100496.16
2022-08-03T11:04:47.262Z,100499.91
2022-08-03T11:07:25.939Z,100493.66
2022-08-03T11:09:56.786Z,100490.73
2022-08-03T11:12:32.802Z,100484.09
2022-08-03T11:15:06.407Z,100492.54
2022-08-03T11:17:45.864Z,100494.46
2022-08-03T11:20:50.980Z,100489.63
2022-08-03T11:24:04.681Z,100489.91
2022-08-03T11:26:35.077Z,100481.11
2022-08-03T11:29:31.468Z,100486.98
2022-08-03T11:31:59.792Z,100478.30
2022-08-03T11:34:28.228Z,100471.36
2022-08-03T11:37:23.661Z,100472.65
2022-08-03T11:39:55.572Z,100472.77
2022-08-03T11:42:27.658Z,100479.17
2022-08-03T11:45:00.977Z,100481.07
2022-08-03T11:47:30.310Z,100473.87
2022-08-03T11:50:02.313Z,100470.02
2022-08-03T11:52:40.818Z,100466.73
2022-08-03T11:55:11.768Z,100458.52
2022-08-03T11:59:01.335Z,100470.17
2022-08-03T12:00:33.686Z,100469.53
2022-08-03T12:03:11.111Z,100467.77
2022-08-03T12:05:52.554Z,100467.66
2022-08-03T12:08:27.551Z,100469.52
2022-08-03T12:11:00.171Z,100457.88
2022-08-03T12:14:44.635Z,100460.29
2022-08-03T12:16:39.861Z,100464.16
2022-08-03T12:19:08.378Z,100464.08
2022-08-03T12:21:57.346Z,100458.05
2022-08-03T12:24:28.667Z,100466.19
2022-08-03T12:27:11.196Z,100459.29
2022-08-03T12:29:43.287Z,100464.63
2022-08-03T12:32:26.987Z,100450.61
2022-08-03T12:35:04.831Z,100446.00
2022-08-03T12:37:33.755Z,100446.67
2022-08-03T12:40:10.572Z,100459.73
2022-08-03T12:42:40.469Z,100457.59
2022-08-03T12:45:32.275Z,100458.79
2022-08-03T12:48:02.752Z,100447.83
2022-08-03T12:50:37.775Z,100445.79
2022-08-03T12:53:09.290Z,100460.06
2022-08-03T12:55:40.048Z,100447.28
2022-08-03T12:58:35.158Z,100461.97
2022-08-03T13:01:09.954Z,100462.15
2022-08-03T13:03:50.338Z,100467.10
2022-08-03T13:06:25.175Z,100466.13
2022-08-03T13:09:08.489Z,100465.89
2022-08-03T13:11:57.660Z,100460.12
2022-08-03T13:14:28.274Z,100461.90
2022-08-03T13:16:59.710Z,100462.83
2022-08-03T13:19:28.612Z,100462.45
2022-08-03T13:22:04.290Z,100461.61
2022-08-03T13:24:33.947Z,100457.13
2022-08-03T13:28:02.367Z,100455.90
2022-08-03T13:29:55.139Z,100461.64
2022-08-03T13:32:24.227Z,100460.70
2022-08-03T13:34:55.540Z,100455.94
2022-08-03T13:37:24.463Z,100461.02
2022-08-03T13:39:59.211Z,100473.17
2022-08-03T13:42:31.883Z,100474.37
2022-08-03T13:45:01.963Z,100475.60
2022-08-03T13:47:31.174Z,100475.70
2022-08-03T13:50:02.805Z,100475.04
2022-08-03T13:52:36.868Z,100471.02
2022-08-03T13:55:08.469Z,100476.38
2022-08-03T13:58:19.048Z,100471.59
2022-08-03T14:00:29.677Z,100471.83
2022-08-03T14:03:10.804Z,100471.31
2022-08-03T14:05:46.987Z,100473.11
2022-08-03T14:08:15.946Z,100472.18
2022-08-03T14:10:45.653Z,100474.54
2022-08-03T14:13:17.439Z,100474.16
2022-08-03T14:15:51.180Z,100468.75
2022-08-03T14:18:28.855Z,100468.87
2022-08-03T14:21:06.739Z,100470.73
2022-08-03T14:23:38.103Z,100477.11
2022-08-03T14:26:07.613Z,100475.62
2022-08-03T14:28:39.385Z,100472.47
2022-08-03T14:31:08.549Z,100471.78
2022-08-03T14:33:56.630Z,100474.84
2022-08-03T14:36:25.750Z,100472.16
2022-08-03T14:39:01.074Z,100475.57
2022-08-03T14:41:30.159Z,100469.77
2022-08-03T14:44:00.526Z,100469.05
2022-08-03T14:46:32.438Z,100468.71
2022-08-03T14:50:24.424Z,100466.41
2022-08-03T14:51:53.528Z,100466.90
2022-08-03T14:54:23.739Z,100463.48
2022-08-03T14:56:52.590Z,100465.23
2022-08-03T14:59:21.559Z,100465.56
2022-08-03T15:02:05.575Z,100467.51
2022-08-03T15:04:36.323Z,100466.00
2022-08-03T15:07:06.085Z,100467.02
2022-08-03T15:09:34.909Z,100468.58
2022-08-03T15:12:04.135Z,100461.59
2022-08-03T15:14:34.923Z,100463.63
2022-08-03T15:17:07.355Z,100461.15
2022-08-03T15:20:00.930Z,100464.46
2022-08-03T15:22:34.653Z,100468.05
2022-08-03T15:26:04.010Z,100469.73
2022-08-03T15:28:04.094Z,100471.91
2022-08-03T15:30:37.129Z,100474.59
2022-08-03T15:33:06.130Z,100469.93
2022-08-03T15:35:35.696Z,100467.85
2022-08-03T15:38:09.006Z,100466.23
2022-08-03T15:40:38.408Z,100467.70
2022-08-03T15:43:07.714Z,100465.81
2022-08-03T15:45:36.977Z,100467.39
2022-08-03T15:48:06.513Z,100468.20
2022-08-03T15:50:37.971Z,100467.64
2022-08-03T15:53:06.588Z,100466.62
2022-08-03T15:55:35.395Z,100466.66
2022-08-03T15:59:03.267Z,100465.66
2022-08-03T16:00:52.616Z,100460.92
2022-08-03T16:03:23.310Z,100463.38
2022-08-03T16:05:52.201Z,100464.27
2022-08-03T16:08:21.370Z,100460.06
2022-08-03T16:10:50.582Z,100458.13
2022-08-03T16:13:23.630Z,100457.96
2022-08-03T16:16:12.872Z,100460.14
2022-08-03T16:18:42.343Z,100463.73
2022-08-03T16:21:10.936Z,100464.17
2022-08-03T16:23:47.342Z,100461.30
2022-08-03T16:26:16.154Z,100465.20
2022-08-03T16:28:47.723Z,100471.58
2022-08-03T16:31:16.454Z,100472.55
2022-08-03T16:33:45.047Z,100475.71
2022-08-03T16:36:13.836Z,100478.73
2022-08-03T16:38:42.417Z,100476.08
2022-08-03T16:41:11.197Z,100477.45
2022-08-03T16:43:40.042Z,100481.10
2022-08-03T16:46:08.670Z,100483.55
2022-08-03T16:48:37.676Z,100479.64
2022-08-03T16:51:06.447Z,100481.36
2022-08-03T16:54:05.787Z,100481.34
2022-08-03T16:56:23.888Z,100480.79
2022-08-03T16:58:52.565Z,100482.70
2022-08-03T17:01:24.738Z,100486.46
2022-08-03T17:04:04.629Z,100491.27
2022-08-03T17:06:44.924Z,100488.58
2022-08-03T17:09:20.696Z,100486.35
2022-08-03T17:11:51.951Z,100487.54
2022-08-03T17:14:29.322Z,100493.27
2022-08-03T17:17:01.457Z,100493.80
2022-08-03T17:19:35.206Z,100498.83
2022-08-03T17:22:36.104Z,100503.23
2022-08-03T17:25:09.780Z,100506.96
2022-08-03T17:28:50.948Z,100504.00
2022-08-03T17:31:01.267Z,100507.33
2022-08-03T17:33:35.620Z,100508.23
2022-08-03T17:36:04.815Z,100513.96
2022-08-03T17:38:38.691Z,100514.53
2022-08-03T17:41:10.891Z,100513.23
2022-08-03T17:46:34.539Z,100525.12
2022-08-03T17:49:03.637Z,100524.08
2022-08-03T17:52:28.992Z,100525.53
2022-08-03T17:55:56.823Z,100529.77
2022-08-03T17:58:18.831Z,100536.61
2022-08-03T18:02:00.411Z,100536.42
2022-08-03T18:04:30.635Z,100542.74
2022-08-03T18:07:11.635Z,100545.72
2022-08-03T18:10:05.989Z,100547.27
2022-08-03T18:12:52.723Z,100549.67
2022-08-03T18:15:35.232Z,100553.38
2022-08-03T18:18:10.801Z,100549.16
2022-08-03T18:20:42.059Z,100554.20
2022-08-03T18:23:25.105Z,100558.84
2022-08-03T18:26:07.538Z,100555.67
2022-08-03T18:28:41.039Z,100551.55
2022-08-03T18:31:12.868Z,100561.61
2022-08-03T18:34:17.260Z,100563.61
2022-08-03T18:36:56.305Z,100562.43
2022-08-03T18:39:26.868Z,100558.13
2022-08-03T18:41:55.552Z,100568.83
2022-08-03T18:44:45.612Z,100571.24
2022-08-03T18:48:02.620Z,100572.23
2022-08-03T18:50:59.128Z,100571.00
2022-08-03T18:54:02.363Z,100576.10
2022-08-03T18:56:58.459Z,100580.65
2022-08-03T19:00:04.983Z,100584.70
2022-08-03T19:02:48.980Z,100585.87
2022-08-03T19:05:22.768Z,100586.77
2022-08-03T19:08:09.303Z,100591.48
2022-08-03T19:10:57.894Z,100587.73
2022-08-03T19:13:40.681Z,100594.42
2022-08-03T19:16:24.980Z,100592.63
2022-08-03T19:18:56.268Z,100593.84
2022-08-03T19:21:26.959Z,100593.55
2022-08-03T19:23:59.537Z,100590.89
2022-08-03T19:26:30.926Z,100588.41
2022-08-03T19:28:59.894Z,100585.58
2022-08-03T19:31:31.050Z,100590.52
2022-08-03T19:34:04.433Z,100586.56
2022-08-03T19:36:40.527Z,100588.80
2022-08-03T19:39:14.479Z,100586.21
2022-08-03T19:41:47.239Z,100586.22
2022-08-03T19:44:26.584Z,100585.26
2022-08-03T19:47:06.358Z,100578.72
2022-08-03T19:50:05.904Z,100577.48
2022-08-03T19:52:31.449Z,100584.45
2022-08-03T19:55:02.466Z,100580.54
2022-08-03T19:57:36.769Z,100580.73
2022-08-03T20:00:10.338Z,100581.56
2022-08-03T20:02:41.008Z,100582.09
2022-08-03T20:05:14.743Z,100577.13
2022-08-03T20:07:48.343Z,100579.62
2022-08-03T20:10:18.446Z,100578.04
2022-08-03T20:12:51.365Z,100579.98
2022-08-03T20:15:22.377Z,100581.17
2022-08-03T20:18:00.830Z,100580.30
2022-08-03T20:20:38.021Z,100575.07
2022-08-03T20:23:16.826Z,100576.74
2022-08-03T20:25:57.407Z,100575.42
2022-08-03T20:28:50.125Z,100573.07
2022-08-03T20:31:30.615Z,100573.56
2022-08-03T20:34:06.607Z,100564.54
2022-08-03T20:36:35.425Z,100564.12
2022-08-03T20:39:07.501Z,100562.98
2022-08-03T20:41:36.814Z,100563.90
2022-08-03T20:44:06.369Z,100556.79
2022-08-03T20:46:50.150Z,100561.94
2022-08-03T20:49:24.188Z,100560.55
2022-08-03T20:51:53.758Z,100560.24
2022-08-03T20:54:29.550Z,100563.79
2022-08-03T20:57:14.035Z,100561.45
2022-08-03T20:59:50.108Z,100562.55
2022-08-03T21:02:28.962Z,100562.00
2022-08-03T21:05:03.777Z,100563.04
2022-08-03T21:08:04.951Z,100560.91
2022-08-03T21:10:41.984Z,100560.45
2022-08-03T21:12:54.884Z,100521.02
2022-08-03T21:13:46.766Z,100566.98
2022-08-03T21:16:27.263Z,100568.41
2022-08-03T21:19:00.341Z,100572.66
2022-08-03T21:21:32.841Z,100571.24
2022-08-03T21:24:03.915Z,100567.86
2022-08-03T21:26:35.417Z,100569.52
2022-08-03T21:29:03.995Z,100574.70
2022-08-03T21:31:32.881Z,100573.82
2022-08-03T21:34:07.980Z,100575.93
2022-08-03T21:36:37.924Z,100574.31
2022-08-03T21:39:10.099Z,100573.25
2022-08-03T21:41:40.393Z,100574.02
2022-08-03T21:44:09.651Z,100574.25
2022-08-03T21:46:42.796Z,100573.92
2022-08-03T21:50:05.756Z,100577.77
2022-08-03T21:52:07.488Z,100570.50
2022-08-03T21:54:43.687Z,100568.96
2022-08-03T21:57:24.332Z,100579.09
2022-08-03T21:59:57.293Z,100573.77
2022-08-03T22:02:31.559Z,100576.31
2022-08-03T22:05:05.198Z,100580.36
2022-08-03T22:07:35.547Z,100585.73
2022-08-03T22:10:07.143Z,100582.36
2022-08-03T22:12:36.764Z,100585.70
2022-08-03T22:15:12.875Z,100582.09
2022-08-03T22:17:54.709Z,100583.25
2022-08-03T22:20:28.935Z,100584.41
2022-08-03T22:23:07.255Z,100586.80
2022-08-03T22:25:39.945Z,100586.80
2022-08-03T22:28:12.909Z,100587.60
2022-08-03T22:30:42.783Z,100588.88
2022-08-03T22:33:13.490Z,100585.73
2022-08-03T22:35:51.664Z,100584.65
2022-08-03T22:38:20.459Z,100587.80
2022-08-03T22:40:52.661Z,100587.20
2022-08-03T22:43:26.180Z,100584.90
2022-08-03T22:46:10.627Z,100584.77
2022-08-03T22:48:42.384Z,100582.91
2022-08-03T22:51:11.328Z,100583.11
2022-08-03T22:53:42.680Z,100585.94
2022-08-03T22:56:12.222Z,100579.47
2022-08-03T22:58:40.933Z,100578.86
2022-08-03T23:01:13.272Z,100584.13
2022-08-03T23:04:01.040Z,100585.63
2022-08-03T23:06:40.344Z,100583.98
2022-08-03T23:09:14.163Z,100583.98
2022-08-03T23:11:46.004Z,100583.38
2022-08-03T23:14:18.781Z,100582.07
2022-08-03T23:16:48.198Z,100580.02
2022-08-03T23:19:25.949Z,100580.00
2022-08-03T23:22:02.327Z,100576.40
2022-08-03T23:24:36.488Z,100571.74
2022-08-03T23:27:07.659Z,100578.61
2022-08-03T23:29:39.105Z,100583.66
2022-08-03T23:32:08.262Z,100581.36
2022-08-03T23:34:58.184Z,100579.36
2022-08-03T23:37:27.303Z,100573.80
2022-08-03T23:39:57.546Z,100566.48
2022-08-03T23:42:27.773Z,100564.77
2022-08-03T23:45:05.643Z,100571.51
2022-08-03T23:47:46.446Z,100567.04
2022-08-03T23:50:18.929Z,100570.70
2022-08-03T23:53:02.175Z,100566.80
2022-08-03T23:55:53.465Z,100561.48
2022-08-03T23:58:49.967Z,100559.33
